createdAt,value
2022-09-17T00:01:31.144Z,97054.00
2022-09-17T00:04:03.946Z,97062.00
2022-09-17T00:06:33.643Z,97064.00
2022-09-17T00:09:00.743Z,97067.00
2022-09-17T00:11:31.448Z,97072.00
2022-09-17T00:14:02.039Z,97070.00
2022-09-17T00:16:43.161Z,97064.00
2022-09-17T00:19:17.806Z,97064.00
2022-09-17T00:21:45.342Z,97055.00
2022-09-17T00:24:14.644Z,97053.00
2022-09-17T00:26:42.458Z,97065.00
2022-09-17T00:29:10.252Z,97052.00
2022-09-17T00:31:39.237Z,97050.00
2022-09-17T00:34:07.169Z,97054.00
2022-09-17T00:36:39.022Z,97055.00
2022-09-17T00:39:08.813Z,97053.00
2022-09-17T00:41:38.337Z,97043.00
2022-09-17T00:44:39.761Z,97064.00
2022-09-17T00:47:47.254Z,97048.00
2022-09-17T00:50:19.420Z,97045.00
2022-09-17T00:52:54.245Z,97063.00
2022-09-17T00:55:34.749Z,97059.00
2022-09-17T00:58:05.649Z,97067.00
2022-09-17T01:00:33.456Z,97054.00
2022-09-17T01:03:00.452Z,97058.00
2022-09-17T01:05:45.946Z,97054.00
2022-09-17T01:08:43.804Z,97068.00
2022-09-17T01:11:43.069Z,97077.00
2022-09-17T01:14:44.986Z,97076.00
2022-09-17T01:17:31.778Z,97067.00
2022-09-17T01:20:07.918Z,97062.00
2022-09-17T01:23:12.853Z,97071.00
2022-09-17T01:26:35.422Z,97075.00
2022-09-17T01:29:23.614Z,97082.00
2022-09-17T01:32:03.529Z,97073.00
2022-09-17T01:35:19.249Z,97069.00
2022-09-17T01:38:01.704Z,97054.00
2022-09-17T01:41:07.727Z,97063.00
2022-09-17T01:43:43.791Z,97063.00
2022-09-17T01:46:30.345Z,97051.00
2022-09-17T01:49:04.709Z,97066.00
2022-09-17T01:51:42.226Z,97067.00
2022-09-17T01:54:32.074Z,97066.00
2022-09-17T01:57:07.054Z,97071.00
2022-09-17T01:59:43.902Z,97082.00
2022-09-17T02:02:22.841Z,97086.00
2022-09-17T02:05:02.024Z,97092.00
2022-09-17T02:07:32.599Z,97073.00
2022-09-17T02:10:29.464Z,97075.00
2022-09-17T02:13:27.597Z,97083.00
2022-09-17T02:16:27.855Z,97093.00
2022-09-17T02:19:22.790Z,97086.00
2022-09-17T02:22:16.173Z,97088.00
2022-09-17T02:25:10.656Z,97096.00
2022-09-17T02:28:03.557Z,97074.00
2022-09-17T02:30:32.101Z,97097.00
2022-09-17T02:33:02.072Z,97076.00
2022-09-17T02:35:33.198Z,97088.00
2022-09-17T02:38:01.092Z,97091.00
2022-09-17T02:40:35.055Z,97096.00
2022-09-17T02:43:38.681Z,97092.00
2022-09-17T02:46:17.442Z,97099.00
2022-09-17T02:49:00.204Z,97100.00
2022-09-17T02:51:44.814Z,97102.00
2022-09-17T02:54:52.433Z,97091.00
2022-09-17T02:57:29.105Z,97093.00
2022-09-17T03:00:18.481Z,97101.00
2022-09-17T03:03:07.078Z,97098.00
2022-09-17T03:05:36.597Z,97101.00
2022-09-17T03:08:03.548Z,97101.00
2022-09-17T03:10:33.522Z,97096.00
2022-09-17T03:13:00.581Z,97085.00
2022-09-17T03:15:28.302Z,97093.00
2022-09-17T03:17:55.608Z,97095.00
2022-09-17T03:20:22.686Z,97098.00
2022-09-17T03:22:51.540Z,97098.00
2022-09-17T03:25:18.395Z,97095.00
2022-09-17T03:27:45.217Z,97098.00
2022-09-17T03:30:12.266Z,97092.00
2022-09-17T03:32:39.128Z,97087.00
2022-09-17T03:35:06.194Z,97085.00
2022-09-17T03:37:33.375Z,97088.00
2022-09-17T03:40:00.363Z,97102.00
2022-09-17T03:42:27.423Z,97087.00
2022-09-17T03:44:54.195Z,97095.00
2022-09-17T03:47:21.090Z,97088.00
2022-09-17T03:49:48.214Z,97089.00
2022-09-17T03:52:15.244Z,97103.00
2022-09-17T03:54:45.143Z,97095.00
2022-09-17T03:57:12.009Z,97097.00
2022-09-17T03:59:38.885Z,97098.00
2022-09-17T04:02:06.102Z,97103.00
2022-09-17T04:04:33.055Z,97099.00
2022-09-17T04:06:59.964Z,97092.00
2022-09-17T04:09:26.877Z,97110.00
2022-09-17T04:11:53.784Z,97114.00
2022-09-17T04:14:20.607Z,97118.00
2022-09-17T04:16:47.598Z,97106.00
2022-09-17T04:19:14.530Z,97106.00
2022-09-17T04:21:44.110Z,97114.00
2022-09-17T04:24:10.951Z,97123.00
2022-09-17T04:26:37.773Z,97118.00
2022-09-17T04:29:04.630Z,97103.00
2022-09-17T04:31:31.958Z,97115.00
2022-09-17T04:33:58.984Z,97114.00
2022-09-17T04:36:25.998Z,97113.00
2022-09-17T04:38:53.547Z,97119.00
2022-09-17T04:41:20.474Z,97129.00
2022-09-17T04:43:47.556Z,97119.00
2022-09-17T04:46:14.494Z,97125.00
2022-09-17T04:48:41.359Z,97117.00
2022-09-17T04:51:08.429Z,97119.00
2022-09-17T04:53:35.257Z,97115.00
2022-09-17T04:56:02.454Z,97122.00
2022-09-17T04:58:32.652Z,97115.00
2022-09-17T05:00:59.652Z,97128.00
2022-09-17T05:03:26.925Z,97128.00
2022-09-17T05:05:53.775Z,97132.00
2022-09-17T05:08:22.839Z,97122.00
2022-09-17T05:10:51.682Z,97132.00
2022-09-17T05:13:18.962Z,97142.00
2022-09-17T05:15:46.162Z,97142.00
2022-09-17T05:18:13.344Z,97136.00
2022-09-17T05:20:40.263Z,97148.00
2022-09-17T05:23:07.307Z,97138.00
2022-09-17T05:25:34.391Z,97135.00
2022-09-17T05:28:01.429Z,97143.00
2022-09-17T05:30:28.478Z,97142.00
2022-09-17T05:33:05.560Z,97149.00
2022-09-17T05:35:33.622Z,97149.00
2022-09-17T05:38:02.894Z,97154.00
2022-09-17T05:40:32.759Z,97153.00
2022-09-17T05:43:02.207Z,97163.00
2022-09-17T05:45:29.992Z,97160.00
2022-09-17T05:48:02.075Z,97164.00
2022-09-17T05:50:30.639Z,97166.00
2022-09-17T05:52:57.810Z,97170.00
2022-09-17T05:55:24.943Z,97167.00
2022-09-17T05:57:52.005Z,97179.00
2022-09-17T06:00:19.235Z,97174.00
2022-09-17T06:02:46.253Z,97174.00
2022-09-17T06:05:13.166Z,97183.00
2022-09-17T06:07:40.226Z,97183.00
2022-09-17T06:10:08.447Z,97194.00
2022-09-17T06:12:35.607Z,97192.00
2022-09-17T06:15:04.357Z,97197.00
2022-09-17T06:17:35.597Z,97192.00
2022-09-17T06:20:05.513Z,97190.00
2022-09-17T06:22:32.685Z,97185.00
2022-09-17T06:25:03.879Z,97188.00
2022-09-17T06:27:35.406Z,97191.00
2022-09-17T06:30:02.653Z,97204.00
2022-09-17T06:32:29.804Z,97200.00
2022-09-17T06:34:57.461Z,97201.00
2022-09-17T06:37:33.038Z,97207.00
2022-09-17T06:40:00.490Z,97194.00
2022-09-17T06:42:28.523Z,97215.00
2022-09-17T06:44:58.877Z,97201.00
2022-09-17T06:47:27.464Z,97206.00
2022-09-17T06:49:56.981Z,97205.00
2022-09-17T06:52:23.943Z,97191.00
2022-09-17T06:54:50.754Z,97188.00
2022-09-17T06:57:17.895Z,97199.00
2022-09-17T06:59:45.025Z,97212.00
2022-09-17T07:02:12.054Z,97214.00
2022-09-17T07:04:38.946Z,97219.00
2022-09-17T07:07:05.840Z,97205.00
2022-09-17T07:09:32.729Z,97227.00
2022-09-17T07:11:59.799Z,97218.00
2022-09-17T07:14:26.615Z,97216.00
2022-09-17T07:16:53.738Z,97217.00
2022-09-17T07:19:20.729Z,97206.00
2022-09-17T07:21:49.200Z,97215.00
2022-09-17T07:24:16.142Z,97215.00
2022-09-17T07:26:42.970Z,97231.00
2022-09-17T07:29:09.960Z,97203.00
2022-09-17T07:31:36.935Z,97214.00
2022-09-17T07:34:03.996Z,97209.00
2022-09-17T07:36:31.153Z,97219.00
2022-09-17T07:38:57.977Z,97209.00
2022-09-17T07:41:24.965Z,97216.00
2022-09-17T07:43:54.742Z,97215.00
2022-09-17T07:46:22.205Z,97212.00
2022-09-17T07:48:50.593Z,97209.00
2022-09-17T07:51:21.818Z,97223.00
2022-09-17T07:53:56.089Z,97223.00
2022-09-17T07:56:24.505Z,97229.00
2022-09-17T07:58:52.378Z,97218.00
2022-09-17T08:01:21.186Z,97225.00
2022-09-17T08:03:51.818Z,97225.00
2022-09-17T08:06:28.242Z,97220.00
2022-09-17T08:08:57.514Z,97218.00
2022-09-17T08:11:51.692Z,97209.00
2022-09-17T08:14:16.359Z,97219.00
2022-09-17T08:16:45.490Z,97211.00
2022-09-17T08:19:12.379Z,97218.00
2022-09-17T08:21:39.206Z,97205.00
2022-09-17T08:24:06.707Z,97211.00
2022-09-17T08:26:33.574Z,97215.00
2022-09-17T08:29:00.511Z,97207.00
2022-09-17T08:31:33.179Z,97221.00
2022-09-17T08:34:00.159Z,97219.00
2022-09-17T08:36:28.572Z,97209.00
2022-09-17T08:38:56.738Z,97212.00
2022-09-17T08:41:53.014Z,97217.00
2022-09-17T08:44:39.675Z,97214.00
2022-09-17T08:47:33.425Z,97222.00
2022-09-17T08:50:19.140Z,97231.00
2022-09-17T08:53:18.353Z,97218.00
2022-09-17T08:56:02.595Z,97222.00
2022-09-17T08:58:40.985Z,97228.00
2022-09-17T09:01:47.993Z,97223.00
2022-09-17T09:04:35.795Z,97226.00
2022-09-17T09:07:08.994Z,97228.00
2022-09-17T09:09:51.061Z,97227.00
2022-09-17T09:12:33.674Z,97225.00
2022-09-17T09:15:22.619Z,97226.00
2022-09-17T09:17:52.378Z,97215.00
2022-09-17T09:21:00.045Z,97225.00
2022-09-17T09:24:05.198Z,97218.00
2022-09-17T09:26:41.706Z,97215.00
2022-09-17T09:29:28.827Z,97245.00
2022-09-17T09:32:36.336Z,97236.00
2022-09-17T09:35:25.375Z,97228.00
2022-09-17T09:38:15.937Z,97244.00
2022-09-17T09:40:58.476Z,97211.00
2022-09-17T09:44:05.566Z,97218.00
2022-09-17T09:47:00.279Z,97241.00
2022-09-17T09:49:35.990Z,97237.00
2022-09-17T09:52:35.171Z,97243.00
2022-09-17T09:56:01.677Z,97232.00
2022-09-17T09:58:40.815Z,97233.00
2022-09-17T10:01:28.722Z,97226.00
2022-09-17T10:03:58.170Z,97234.00
2022-09-17T10:06:30.483Z,97207.00
2022-09-17T10:08:57.474Z,97239.00
2022-09-17T10:11:27.787Z,97210.00
2022-09-17T10:14:31.799Z,97224.00
2022-09-17T10:17:26.102Z,97208.00
2022-09-17T10:20:20.716Z,97212.00
2022-09-17T10:22:50.056Z,97202.00
2022-09-17T10:25:43.621Z,97220.00
2022-09-17T10:28:38.813Z,97220.00
2022-09-17T10:31:10.666Z,97212.00
2022-09-17T10:34:04.549Z,97209.00
2022-09-17T10:36:44.850Z,97212.00
2022-09-17T10:39:34.103Z,97200.00
2022-09-17T10:42:06.491Z,97213.00
2022-09-17T10:44:36.661Z,97217.00
2022-09-17T10:47:22.023Z,97206.00
2022-09-17T10:49:59.925Z,97219.00
2022-09-17T10:52:34.237Z,97191.00
2022-09-17T10:55:30.560Z,97223.00
2022-09-17T10:58:19.239Z,97229.00
2022-09-17T11:01:08.115Z,97209.00
2022-09-17T11:03:49.225Z,97196.00
2022-09-17T11:06:49.186Z,97208.00
2022-09-17T11:09:43.816Z,97191.00
2022-09-17T11:12:42.008Z,97183.00
2022-09-17T11:15:39.732Z,97185.00
2022-09-17T11:18:40.927Z,97192.00
2022-09-17T11:21:29.312Z,97196.00
2022-09-17T11:24:46.624Z,97216.00
2022-09-17T11:27:38.629Z,97212.00
2022-09-17T11:30:21.544Z,97211.00
2022-09-17T11:33:21.229Z,97216.00
2022-09-17T11:36:04.305Z,97208.00
2022-09-17T11:38:43.961Z,97218.00
2022-09-17T11:41:20.475Z,97198.00
2022-09-17T11:44:10.849Z,97204.00
2022-09-17T11:47:07.086Z,97211.00
2022-09-17T11:49:50.366Z,97197.00
2022-09-17T11:52:32.387Z,97198.00
2022-09-17T11:55:16.082Z,97208.00
2022-09-17T11:57:44.715Z,97205.00
2022-09-17T12:00:19.237Z,97202.00
2022-09-17T12:03:21.770Z,97212.00
2022-09-17T12:05:57.803Z,97208.00
2022-09-17T12:09:01.708Z,97198.00
2022-09-17T12:11:43.192Z,97211.00
2022-09-17T12:14:26.762Z,97219.00
2022-09-17T12:16:59.278Z,97227.00
2022-09-17T12:19:34.853Z,97220.00
2022-09-17T12:22:24.877Z,97213.00
2022-09-17T12:24:52.932Z,97224.00
2022-09-17T12:27:38.186Z,97237.00
2022-09-17T12:30:21.857Z,97235.00
2022-09-17T12:33:08.223Z,97234.00
2022-09-17T12:36:03.894Z,97231.00
2022-09-17T12:39:29.079Z,97225.00
2022-09-17T12:42:42.859Z,97247.00
2022-09-17T12:45:20.465Z,97237.00
2022-09-17T12:48:23.150Z,97228.00
2022-09-17T12:51:25.757Z,97216.00
2022-09-17T12:54:21.130Z,97210.00
2022-09-17T12:57:25.060Z,97226.00
2022-09-17T13:00:08.200Z,97238.00
2022-09-17T13:02:59.458Z,97222.00
2022-09-17T13:05:55.025Z,97227.00
2022-09-17T13:09:19.877Z,97231.00
2022-09-17T13:12:14.827Z,97221.00
2022-09-17T13:15:27.543Z,97229.00
2022-09-17T13:18:23.537Z,97234.00
2022-09-17T13:21:15.279Z,97215.00
2022-09-17T13:23:49.699Z,97220.00
2022-09-17T13:26:21.684Z,97209.00
2022-09-17T13:28:52.823Z,97208.00
2022-09-17T13:31:35.991Z,97210.00
2022-09-17T13:34:04.007Z,97214.00
2022-09-17T13:36:53.245Z,97206.00
2022-09-17T13:39:50.633Z,97201.00
2022-09-17T13:42:57.326Z,97207.00
2022-09-17T13:45:26.482Z,97198.00
2022-09-17T13:48:12.088Z,97199.00
2022-09-17T13:50:43.188Z,97199.00
2022-09-17T13:53:17.348Z,97200.00
2022-09-17T13:55:52.371Z,97189.00
2022-09-17T13:58:19.165Z,97195.00
2022-09-17T14:01:00.868Z,97193.00
2022-09-17T14:03:30.903Z,97189.00
2022-09-17T14:06:21.991Z,97192.00
2022-09-17T14:08:54.550Z,97174.00
2022-09-17T14:11:25.240Z,97180.00
2022-09-17T14:14:05.166Z,97186.00
2022-09-17T14:16:45.940Z,97172.00
2022-09-17T14:19:15.912Z,97179.00
2022-09-17T14:22:01.967Z,97172.00
2022-09-17T14:24:48.935Z,97186.00
2022-09-17T14:27:42.712Z,97182.00
2022-09-17T14:30:29.966Z,97199.00
2022-09-17T14:33:18.308Z,97205.00
2022-09-17T14:35:59.947Z,97187.00
2022-09-17T14:38:44.546Z,97188.00
2022-09-17T14:41:11.405Z,97192.00
2022-09-17T14:43:52.541Z,97196.00
2022-09-17T14:46:36.301Z,97189.00
2022-09-17T14:49:25.759Z,97196.00
2022-09-17T14:51:55.847Z,97207.00
2022-09-17T14:54:26.014Z,97222.00
2022-09-17T14:56:58.136Z,97219.00
2022-09-17T14:59:59.530Z,97233.00
2022-09-17T15:02:43.783Z,97258.00
2022-09-17T15:05:26.997Z,97276.00
2022-09-17T15:08:17.697Z,97257.00
2022-09-17T15:10:55.205Z,97242.00
2022-09-17T15:13:28.806Z,97241.00
2022-09-17T15:16:16.423Z,97225.00
2022-09-17T15:18:55.249Z,97224.00
2022-09-17T15:21:43.182Z,97223.00
2022-09-17T15:24:28.690Z,97222.00
2022-09-17T15:26:59.795Z,97204.00
2022-09-17T15:29:32.344Z,97202.00
2022-09-17T15:31:59.354Z,97227.00
2022-09-17T15:34:26.148Z,97211.00
2022-09-17T15:37:25.593Z,97222.00
2022-09-17T15:39:55.590Z,97218.00
2022-09-17T15:42:31.256Z,97217.00
2022-09-17T15:45:22.306Z,97233.00
2022-09-17T15:47:57.912Z,97215.00
2022-09-17T15:50:32.310Z,97216.00
2022-09-17T15:53:11.056Z,97220.00
2022-09-17T15:55:45.271Z,97218.00
2022-09-17T15:58:35.206Z,97223.00
2022-09-17T16:01:13.942Z,97220.00
2022-09-17T16:03:40.792Z,97225.00
2022-09-17T16:06:19.891Z,97232.00
2022-09-17T16:08:50.808Z,97227.00
2022-09-17T16:11:23.274Z,97223.00
2022-09-17T16:13:53.287Z,97237.00
2022-09-17T16:16:27.876Z,97238.00
2022-09-17T16:18:55.222Z,97233.00
2022-09-17T16:21:22.034Z,97224.00
2022-09-17T16:23:48.920Z,97233.00
2022-09-17T16:26:20.556Z,97232.00
2022-09-17T16:28:53.468Z,97199.00
2022-09-17T16:31:21.203Z,97222.00
2022-09-17T16:33:48.074Z,97228.00
2022-09-17T16:36:18.479Z,97243.00
2022-09-17T16:38:45.381Z,97242.00
2022-09-17T16:41:12.581Z,97227.00
2022-09-17T16:43:40.253Z,97222.00
2022-09-17T16:46:13.293Z,97232.00
2022-09-17T16:48:41.251Z,97233.00
2022-09-17T16:51:09.959Z,97236.00
2022-09-17T16:53:37.778Z,97218.00
2022-09-17T16:56:13.863Z,97246.00
2022-09-17T16:58:41.720Z,97242.00
2022-09-17T17:01:16.514Z,97227.00
2022-09-17T17:03:45.650Z,97234.00
2022-09-17T17:06:17.463Z,97236.00
2022-09-17T17:08:44.619Z,97240.00
2022-09-17T17:11:11.738Z,97248.00
2022-09-17T17:13:38.791Z,97247.00
2022-09-17T17:16:11.284Z,97266.00
2022-09-17T17:18:38.577Z,97270.00
2022-09-17T17:21:11.258Z,97256.00
2022-09-17T17:23:38.869Z,97247.00
2022-09-17T17:26:05.930Z,97265.00
2022-09-17T17:28:36.637Z,97254.00
2022-09-17T17:31:04.681Z,97256.00
2022-09-17T17:33:31.947Z,97243.00
2022-09-17T17:36:08.184Z,97247.00
2022-09-17T17:38:36.885Z,97259.00
2022-09-17T17:41:06.708Z,97237.00
2022-09-17T17:43:34.301Z,97249.00
2022-09-17T17:46:01.702Z,97254.00
2022-09-17T17:48:28.754Z,97273.00
2022-09-17T17:51:00.820Z,97257.00
2022-09-17T17:53:27.735Z,97268.00
2022-09-17T17:56:05.722Z,97286.00
2022-09-17T17:58:34.052Z,97266.00
2022-09-17T18:01:10.581Z,97283.00
2022-09-17T18:03:38.343Z,97278.00
2022-09-17T18:06:06.829Z,97265.00
2022-09-17T18:08:37.903Z,97296.00
2022-09-17T18:11:08.235Z,97280.00
2022-09-17T18:13:37.743Z,97285.00
2022-09-17T18:16:07.531Z,97289.00
2022-09-17T18:18:42.179Z,97296.00
2022-09-17T18:21:15.953Z,97289.00
2022-09-17T18:23:44.168Z,97311.00
2022-09-17T18:26:21.112Z,97323.00
2022-09-17T18:28:48.771Z,97317.00
2022-09-17T18:31:24.872Z,97337.00
2022-09-17T18:33:57.658Z,97329.00
2022-09-17T18:36:27.010Z,97323.00
2022-09-17T18:39:32.924Z,97319.00
2022-09-17T18:41:49.721Z,97318.00
2022-09-17T18:44:18.968Z,97328.00
2022-09-17T18:46:47.798Z,97332.00
2022-09-17T18:49:15.743Z,97331.00
2022-09-17T18:51:43.248Z,97333.00
2022-09-17T18:54:12.589Z,97325.00
2022-09-17T18:56:41.414Z,97319.00
2022-09-17T18:59:09.555Z,97330.00
2022-09-17T19:01:36.907Z,97330.00
2022-09-17T19:04:04.787Z,97349.00
2022-09-17T19:06:32.197Z,97339.00
2022-09-17T19:09:01.334Z,97331.00
2022-09-17T19:11:28.709Z,97326.00
2022-09-17T19:13:56.136Z,97342.00
2022-09-17T19:16:23.554Z,97335.00
2022-09-17T19:18:50.551Z,97344.00
2022-09-17T19:21:21.447Z,97320.00
2022-09-17T19:23:51.126Z,97336.00
2022-09-17T19:26:25.321Z,97324.00
2022-09-17T19:28:58.466Z,97334.00
2022-09-17T19:31:26.874Z,97329.00
2022-09-17T19:33:54.295Z,97334.00
2022-09-17T19:36:21.515Z,97339.00
2022-09-17T19:38:48.797Z,97338.00
2022-09-17T19:41:20.042Z,97329.00
2022-09-17T19:43:47.739Z,97344.00
2022-09-17T19:46:18.486Z,97345.00
2022-09-17T19:48:49.307Z,97338.00
2022-09-17T19:51:17.211Z,97331.00
2022-09-17T19:53:44.653Z,97342.00
2022-09-17T19:56:15.323Z,97334.00
2022-09-17T19:58:43.229Z,97335.00
2022-09-17T20:01:11.081Z,97351.00
2022-09-17T20:03:43.063Z,97342.00
2022-09-17T20:06:17.481Z,97349.00
2022-09-17T20:08:52.994Z,97354.00
2022-09-17T20:11:23.233Z,97328.00
2022-09-17T20:13:50.775Z,97341.00
2022-09-17T20:16:21.393Z,97354.00
2022-09-17T20:18:49.707Z,97345.00
2022-09-17T20:21:21.261Z,97352.00
2022-09-17T20:23:48.472Z,97349.00
2022-09-17T20:26:16.967Z,97361.00
2022-09-17T20:28:44.124Z,97347.00
2022-09-17T20:31:24.790Z,97348.00
2022-09-17T20:33:55.079Z,97357.00
2022-09-17T20:36:26.570Z,97341.00
2022-09-17T20:39:11.563Z,97351.00
2022-09-17T20:41:42.123Z,97353.00
2022-09-17T20:44:08.979Z,97344.00
2022-09-17T20:46:36.089Z,97358.00
2022-09-17T20:49:03.119Z,97359.00
2022-09-17T20:51:32.591Z,97354.00
2022-09-17T20:54:01.450Z,97357.00
2022-09-17T20:56:33.277Z,97351.00
2022-09-17T20:59:24.757Z,97342.00
2022-09-17T21:01:53.435Z,97342.00
2022-09-17T21:04:22.100Z,97354.00
2022-09-17T21:06:53.075Z,97365.00
2022-09-17T21:09:20.450Z,97354.00
2022-09-17T21:11:48.942Z,97354.00
2022-09-17T21:14:17.951Z,97346.00
2022-09-17T21:16:46.520Z,97355.00
2022-09-17T21:19:15.944Z,97360.00
2022-09-17T21:21:42.929Z,97351.00
2022-09-17T21:24:10.270Z,97353.00
2022-09-17T21:26:37.425Z,97341.00
2022-09-17T21:29:04.618Z,97359.00
2022-09-17T21:31:36.423Z,97359.00
2022-09-17T21:34:07.257Z,97351.00
2022-09-17T21:36:37.432Z,97352.00
2022-09-17T21:39:11.555Z,97345.00
2022-09-17T21:41:42.388Z,97341.00
2022-09-17T21:44:11.757Z,97340.00
2022-09-17T21:46:42.175Z,97344.00
2022-09-17T21:49:09.345Z,97344.00
2022-09-17T21:51:42.471Z,97367.00
2022-09-17T21:54:16.690Z,97353.00
2022-09-17T21:56:45.116Z,97341.00
2022-09-17T21:59:14.696Z,97358.00
2022-09-17T22:01:50.637Z,97344.00
2022-09-17T22:04:22.331Z,97346.00
2022-09-17T22:06:50.441Z,97346.00
2022-09-17T22:09:24.114Z,97348.00
2022-09-17T22:11:52.622Z,97353.00
2022-09-17T22:14:23.455Z,97343.00
2022-09-17T22:16:54.770Z,97357.00
2022-09-17T22:19:24.688Z,97364.00
2022-09-17T22:21:54.503Z,97347.00
2022-09-17T22:24:22.747Z,97357.00
2022-09-17T22:26:57.402Z,97353.00
2022-09-17T22:29:26.514Z,97347.00
2022-09-17T22:31:53.502Z,97366.00
2022-09-17T22:34:23.113Z,97356.00
2022-09-17T22:36:50.480Z,97371.00
2022-09-17T22:39:20.537Z,97367.00
2022-09-17T22:41:48.571Z,97376.00
2022-09-17T22:44:18.861Z,97370.00
2022-09-17T22:46:50.543Z,97361.00
2022-09-17T22:49:19.046Z,97370.00
2022-09-17T22:51:48.924Z,97354.00
2022-09-17T22:54:18.309Z,97354.00
2022-09-17T22:56:47.635Z,97352.00
2022-09-17T22:59:15.214Z,97350.00
2022-09-17T23:01:42.299Z,97354.00
2022-09-17T23:04:09.595Z,97354.00
2022-09-17T23:06:39.722Z,97357.00
2022-09-17T23:09:07.548Z,97341.00
2022-09-17T23:11:38.736Z,97353.00
2022-09-17T23:14:09.958Z,97352.00
2022-09-17T23:16:44.582Z,97354.00
2022-09-17T23:19:13.467Z,97365.00
2022-09-17T23:21:40.689Z,97354.00
2022-09-17T23:24:09.826Z,97356.00
2022-09-17T23:26:36.972Z,97361.00
2022-09-17T23:29:05.535Z,97354.00
2022-09-17T23:31:36.867Z,97360.00
2022-09-17T23:34:05.575Z,97371.00
2022-09-17T23:36:37.013Z,97374.00
2022-09-17T23:39:07.048Z,97362.00
2022-09-17T23:41:37.922Z,97378.00
2022-09-17T23:44:14.587Z,97366.00
2022-09-17T23:46:44.333Z,97375.00
2022-09-17T23:49:13.320Z,97377.00
2022-09-17T23:51:40.611Z,97363.00
2022-09-17T23:54:07.582Z,97358.00
2022-09-17T23:56:35.478Z,97364.00
2022-09-17T23:59:03.560Z,97368.00
